PWSweather.com
Personal Weather Stations
Station Observations
KILMORRI1
Goose Lake, Morris, IL 60450

Goose LakeMorris, IL 60450

Lat: 41.34, Lon: -88.3

Elevation: 523

Station Type:

www.gooselakeweather.com

High Low Average
Temperature 78.5°F25.8°C 51.4°F10.8°C 63.4°F17.4°C
Dew Point 61.2°F16.2°C 50.3°F10.2°C 54.0°F12.2°C
Winds 11.5 mph 18.5 kmh Calm Calm 3.0 mph ESE4.8 kmh ESE
Wind Gusts 16.1 mph25.9 kmh -- 5.0 mph8.0 kmh
Humidity 97% 39% 75%
Pressure 30.06 in1017.9 mb 29.78 in1008.5 mb -
Precipitation 0.00 in0.0 mm - -
Hour Temp Dew Point Humidity Winds Wind Gusts Pressure Precip Precip Rate Daily Precip Total
12:00 AM 53.4°F11.9°C 51.7°F10.9°C 94% Calm Calm -- 30.06 in1017.9 mb - 0.00 in0.0 mm 0.00 in0.0 mm
12:10 AM 53.0°F11.7°C 51.3°F10.7°C 94% Calm Calm -- 30.06 in1017.9 mb - 0.00 in0.0 mm 0.00 in0.0 mm
12:20 AM 53.4°F11.9°C 51.7°F10.9°C 94% Calm Calm -- 30.05 in1017.6 mb - 0.00 in0.0 mm 0.00 in0.0 mm
12:30 AM 53.1°F11.7°C 51.7°F10.9°C 95% Calm Calm -- 30.05 in1017.6 mb - 0.00 in0.0 mm 0.00 in0.0 mm
12:40 AM 53.2°F11.8°C 51.8°F11.0°C 95% Calm Calm -- 30.05 in1017.6 mb - 0.00 in0.0 mm 0.00 in0.0 mm
12:50 AM 53.2°F11.8°C 51.8°F11.0°C 95% Calm Calm -- 30.04 in1017.3 mb - 0.00 in0.0 mm 0.00 in0.0 mm
01:00 AM 52.9°F11.6°C 51.5°F10.8°C 95% Calm Calm -- 30.04 in1017.3 mb - 0.00 in0.0 mm 0.00 in0.0 mm
01:10 AM 53.0°F11.7°C 51.6°F10.9°C 95% Calm Calm -- 30.04 in1017.3 mb - 0.00 in0.0 mm 0.00 in0.0 mm
01:20 AM 52.8°F11.6°C 51.4°F10.8°C 95% Calm Calm -- 30.04 in1017.3 mb - 0.00 in0.0 mm 0.00 in0.0 mm
01:30 AM 53.4°F11.9°C 52.0°F11.1°C 95% Calm Calm -- 30.03 in1016.9 mb - 0.00 in0.0 mm 0.00 in0.0 mm
01:40 AM 53.4°F11.9°C 52.0°F11.1°C 95% Calm Calm -- 30.03 in1016.9 mb - 0.00 in0.0 mm 0.00 in0.0 mm
01:50 AM 53.5°F11.9°C 52.4°F11.3°C 96% Calm Calm -- 30.03 in1016.9 mb - 0.00 in0.0 mm 0.00 in0.0 mm
02:00 AM 53.5°F11.9°C 52.4°F11.3°C 96% Calm Calm -- 30.03 in1016.9 mb - 0.00 in0.0 mm 0.00 in0.0 mm
02:10 AM 53.6°F12.0°C 52.5°F11.4°C 96% Calm Calm -- 30.03 in1016.9 mb - 0.00 in0.0 mm 0.00 in0.0 mm
02:20 AM 53.1°F11.7°C 52.0°F11.1°C 96% Calm Calm -- 30.03 in1016.9 mb - 0.00 in0.0 mm 0.00 in0.0 mm
02:30 AM 53.2°F11.8°C 52.1°F11.2°C 96% Calm Calm -- 30.02 in1016.6 mb - 0.00 in0.0 mm 0.00 in0.0 mm
02:40 AM 53.2°F11.8°C 52.1°F11.2°C 96% Calm Calm -- 30.02 in1016.6 mb - 0.00 in0.0 mm 0.00 in0.0 mm
02:50 AM 52.8°F11.6°C 51.7°F10.9°C 96% Calm Calm -- 30.02 in1016.6 mb - 0.00 in0.0 mm 0.00 in0.0 mm
03:00 AM 52.8°F11.6°C 51.7°F10.9°C 96% Calm Calm -- 30.01 in1016.3 mb - 0.00 in0.0 mm 0.00 in0.0 mm
03:10 AM 52.8°F11.6°C 51.7°F10.9°C 96% Calm Calm -- 30.01 in1016.3 mb - 0.00 in0.0 mm 0.00 in0.0 mm
03:20 AM 53.2°F11.8°C 52.0°F11.1°C 96% Calm Calm -- 30.01 in1016.3 mb - 0.00 in0.0 mm 0.00 in0.0 mm
03:30 AM 52.5°F11.4°C 51.4°F10.8°C 96% Calm Calm -- 30.01 in1016.3 mb - 0.00 in0.0 mm 0.00 in0.0 mm
03:40 AM 52.0°F11.1°C 50.9°F10.5°C 96% Calm Calm -- 30.01 in1016.3 mb - 0.00 in0.0 mm 0.00 in0.0 mm
03:50 AM 51.6°F10.9°C 50.5°F10.3°C 96% Calm Calm -- 30.01 in1016.3 mb - 0.00 in0.0 mm 0.00 in0.0 mm
04:00 AM 51.9°F11.1°C 50.8°F10.4°C 96% Calm Calm 1.2 mph1.9 kmh 30.01 in1016.3 mb - 0.00 in0.0 mm 0.00 in0.0 mm
04:10 AM 52.5°F11.4°C 51.4°F10.8°C 96% Calm Calm -- 30.01 in1016.3 mb - 0.00 in0.0 mm 0.00 in0.0 mm
04:20 AM 52.2°F11.2°C 51.1°F10.6°C 96% Calm Calm -- 30.02 in1016.6 mb - 0.00 in0.0 mm 0.00 in0.0 mm
04:30 AM 51.4°F10.8°C 50.3°F10.2°C 96% Calm Calm -- 30.01 in1016.3 mb - 0.00 in0.0 mm 0.00 in0.0 mm
04:40 AM 51.8°F11.0°C 50.7°F10.4°C 96% Calm Calm -- 30.01 in1016.3 mb - 0.00 in0.0 mm 0.00 in0.0 mm
04:50 AM 52.7°F11.5°C 51.9°F11.1°C 97% Calm Calm 2.3 mph3.7 kmh 30.01 in1016.3 mb - 0.00 in0.0 mm 0.00 in0.0 mm
05:00 AM 53.0°F11.7°C 52.2°F11.2°C 97% Calm Calm -- 30.00 in1015.9 mb - 0.00 in0.0 mm 0.00 in0.0 mm
05:10 AM 52.4°F11.3°C 51.3°F10.7°C 96% Calm Calm -- 30.00 in1015.9 mb - 0.00 in0.0 mm 0.00 in0.0 mm
05:20 AM 52.5°F11.4°C 51.4°F10.8°C 96% Calm Calm -- 30.00 in1015.9 mb - 0.00 in0.0 mm 0.00 in0.0 mm
05:30 AM 52.4°F11.3°C 51.5°F10.8°C 97% Calm Calm -- 30.00 in1015.9 mb - 0.00 in0.0 mm 0.00 in0.0 mm
05:40 AM 51.5°F10.8°C 50.4°F10.2°C 96% Calm Calm -- 30.01 in1016.3 mb - 0.00 in0.0 mm 0.00 in0.0 mm
05:50 AM 51.9°F11.1°C 50.8°F10.4°C 96% Calm Calm -- 30.01 in1016.3 mb - 0.00 in0.0 mm 0.00 in0.0 mm
06:00 AM 52.5°F11.4°C 51.7°F10.9°C 97% Calm Calm -- 30.00 in1015.9 mb - 0.00 in0.0 mm 0.00 in0.0 mm
06:10 AM 53.0°F11.7°C 52.1°F11.2°C 97% Calm Calm -- 30.00 in1015.9 mb - 0.00 in0.0 mm 0.00 in0.0 mm
06:20 AM 52.4°F11.3°C 51.5°F10.8°C 97% Calm Calm -- 30.00 in1015.9 mb - 0.00 in0.0 mm 0.00 in0.0 mm
06:30 AM 52.9°F11.6°C 52.1°F11.2°C 97% Calm Calm -- 30.00 in1015.9 mb - 0.00 in0.0 mm 0.00 in0.0 mm
06:40 AM 53.5°F11.9°C 52.7°F11.5°C 97% Calm Calm -- 30.00 in1015.9 mb - 0.00 in0.0 mm 0.00 in0.0 mm
06:50 AM 55.0°F12.8°C 54.1°F12.3°C 97% Calm Calm -- 30.00 in1015.9 mb - 0.00 in0.0 mm 0.00 in0.0 mm
07:00 AM 56.1°F13.4°C 55.2°F12.9°C 97% Calm Calm -- 30.00 in1015.9 mb - 0.00 in0.0 mm 0.00 in0.0 mm
07:10 AM 57.0°F13.9°C 56.1°F13.4°C 97% Calm Calm -- 29.99 in1015.6 mb - 0.00 in0.0 mm 0.00 in0.0 mm
07:20 AM 57.7°F14.3°C 56.9°F13.8°C 97% Calm Calm -- 29.99 in1015.6 mb - 0.00 in0.0 mm 0.00 in0.0 mm
07:30 AM 59.4°F15.2°C 58.6°F14.8°C 97% Calm Calm -- 29.99 in1015.6 mb - 0.00 in0.0 mm 0.00 in0.0 mm
07:40 AM 61.1°F16.2°C 60.0°F15.6°C 96% Calm Calm -- 29.99 in1015.6 mb - 0.00 in0.0 mm 0.00 in0.0 mm
07:50 AM 62.8°F17.1°C 60.7°F15.9°C 93% 1.2 mph NE1.9 kmh NE 1.2 mph1.9 kmh 29.99 in1015.6 mb - 0.00 in0.0 mm 0.00 in0.0 mm
08:00 AM 63.8°F17.7°C 60.5°F15.8°C 89% 4.6 mph ENE7.4 kmh ENE 6.9 mph11.1 kmh 29.99 in1015.6 mb - 0.00 in0.0 mm 0.00 in0.0 mm
08:10 AM 65.0°F18.3°C 61.1°F16.2°C 87% 4.6 mph ENE7.4 kmh ENE 4.6 mph7.4 kmh 29.99 in1015.6 mb - 0.00 in0.0 mm 0.00 in0.0 mm
08:20 AM 65.4°F18.6°C 60.1°F15.6°C 83% 6.9 mph E11.1 kmh E 9.2 mph14.8 kmh 29.99 in1015.6 mb - 0.00 in0.0 mm 0.00 in0.0 mm
08:30 AM 66.2°F19.0°C 61.2°F16.2°C 84% 3.5 mph NE5.6 kmh NE 5.8 mph9.3 kmh 29.99 in1015.6 mb - 0.00 in0.0 mm 0.00 in0.0 mm
08:40 AM 67.3°F19.6°C 60.9°F16.1°C 80% 5.8 mph NE9.3 kmh NE 8.1 mph13.0 kmh 29.98 in1015.2 mb - 0.00 in0.0 mm 0.00 in0.0 mm
08:50 AM 67.8°F19.9°C 59.6°F15.3°C 75% 6.9 mph E11.1 kmh E 9.2 mph14.8 kmh 29.98 in1015.2 mb - 0.00 in0.0 mm 0.00 in0.0 mm
09:00 AM 68.8°F20.4°C 60.2°F15.7°C 74% 3.5 mph NE5.6 kmh NE 8.1 mph13.0 kmh 29.98 in1015.2 mb - 0.00 in0.0 mm 0.00 in0.0 mm
09:10 AM 69.5°F20.8°C 58.5°F14.7°C 68% 6.9 mph E11.1 kmh E 9.2 mph14.8 kmh 29.98 in1015.2 mb - 0.00 in0.0 mm 0.00 in0.0 mm
09:20 AM 70.1°F21.2°C 59.0°F15.0°C 68% 9.2 mph E14.8 kmh E 15.0 mph24.1 kmh 29.98 in1015.2 mb - 0.00 in0.0 mm 0.00 in0.0 mm
09:30 AM 71.0°F21.7°C 57.8°F14.3°C 63% 8.1 mph ENE13.0 kmh ENE 10.4 mph16.7 kmh 29.97 in1014.9 mb - 0.00 in0.0 mm 0.00 in0.0 mm
09:40 AM 71.9°F22.2°C 58.2°F14.6°C 62% 10.4 mph NE16.7 kmh NE 16.1 mph25.9 kmh 29.97 in1014.9 mb - 0.00 in0.0 mm 0.00 in0.0 mm
09:50 AM 72.2°F22.3°C 58.0°F14.4°C 61% 8.1 mph ENE13.0 kmh ENE 13.8 mph22.2 kmh 29.96 in1014.6 mb - 0.00 in0.0 mm 0.00 in0.0 mm
10:00 AM 72.8°F22.7°C 57.6°F14.2°C 59% 9.2 mph NE14.8 kmh NE 13.8 mph22.2 kmh 29.96 in1014.6 mb - 0.00 in0.0 mm 0.00 in0.0 mm
10:10 AM 73.5°F23.1°C 58.7°F14.8°C 60% 9.2 mph ENE14.8 kmh ENE 11.5 mph18.5 kmh 29.95 in1014.2 mb - 0.00 in0.0 mm 0.00 in0.0 mm
10:20 AM 73.9°F23.3°C 57.7°F14.3°C 57% 8.1 mph E13.0 kmh E 11.5 mph18.5 kmh 29.95 in1014.2 mb - 0.00 in0.0 mm 0.00 in0.0 mm
10:30 AM 74.2°F23.4°C 57.5°F14.2°C 56% 9.2 mph E14.8 kmh E 12.7 mph20.4 kmh 29.95 in1014.2 mb - 0.00 in0.0 mm 0.00 in0.0 mm
10:40 AM 74.5°F23.6°C 57.3°F14.1°C 55% 9.2 mph E14.8 kmh E 12.7 mph20.4 kmh 29.95 in1014.2 mb - 0.00 in0.0 mm 0.00 in0.0 mm
10:50 AM 75.5°F24.2°C 56.7°F13.7°C 52% 5.8 mph E9.3 kmh E 12.7 mph20.4 kmh 29.94 in1013.9 mb - 0.00 in0.0 mm 0.00 in0.0 mm
11:00 AM 75.9°F24.4°C 55.9°F13.3°C 50% 8.1 mph NE13.0 kmh NE 11.5 mph18.5 kmh 29.94 in1013.9 mb - 0.00 in0.0 mm 0.00 in0.0 mm
11:10 AM 76.0°F24.4°C 56.0°F13.3°C 50% 9.2 mph E14.8 kmh E 12.7 mph20.4 kmh 29.93 in1013.5 mb - 0.00 in0.0 mm 0.00 in0.0 mm
11:20 AM 76.8°F24.9°C 55.1°F12.8°C 47% 10.4 mph NE16.7 kmh NE 16.1 mph25.9 kmh 29.93 in1013.5 mb - 0.00 in0.0 mm 0.00 in0.0 mm
11:30 AM 77.5°F25.3°C 55.7°F13.2°C 47% 6.9 mph E11.1 kmh E 10.4 mph16.7 kmh 29.93 in1013.5 mb - 0.00 in0.0 mm 0.00 in0.0 mm
11:40 AM 77.2°F25.1°C 54.2°F12.3°C 45% 11.5 mph NE18.5 kmh NE 15.0 mph24.1 kmh 29.92 in1013.2 mb - 0.00 in0.0 mm 0.00 in0.0 mm
11:50 AM 76.9°F24.9°C 52.7°F11.5°C 43% 9.2 mph E14.8 kmh E 13.8 mph22.2 kmh 29.92 in1013.2 mb - 0.00 in0.0 mm 0.00 in0.0 mm
12:00 PM 77.3°F25.2°C 53.7°F12.1°C 44% 10.4 mph ENE16.7 kmh ENE 12.7 mph20.4 kmh 29.91 in1012.9 mb - 0.00 in0.0 mm 0.00 in0.0 mm
12:10 PM 78.2°F25.7°C 52.6°F11.4°C 41% 9.2 mph NE14.8 kmh NE 13.8 mph22.2 kmh 29.91 in1012.9 mb - 0.00 in0.0 mm 0.00 in0.0 mm
12:20 PM 77.2°F25.1°C 53.6°F12.0°C 44% 9.2 mph ENE14.8 kmh ENE 11.5 mph18.5 kmh 29.90 in1012.5 mb - 0.00 in0.0 mm 0.00 in0.0 mm
12:30 PM 77.5°F25.3°C 51.9°F11.1°C 41% 9.2 mph ENE14.8 kmh ENE 11.5 mph18.5 kmh 29.90 in1012.5 mb - 0.00 in0.0 mm 0.00 in0.0 mm
12:40 PM 77.9°F25.5°C 51.6°F10.9°C 40% 6.9 mph ENE11.1 kmh ENE 9.2 mph14.8 kmh 29.89 in1012.2 mb - 0.00 in0.0 mm 0.00 in0.0 mm
12:50 PM 76.6°F24.8°C 50.5°F10.3°C 40% 8.1 mph E13.0 kmh E 15.0 mph24.1 kmh 29.89 in1012.2 mb - 0.00 in0.0 mm 0.00 in0.0 mm
01:00 PM 76.0°F24.4°C 51.9°F11.1°C 43% 8.1 mph E13.0 kmh E 12.7 mph20.4 kmh 29.89 in1012.2 mb - 0.00 in0.0 mm 0.00 in0.0 mm
01:10 PM 77.9°F25.5°C 53.0°F11.7°C 42% 10.4 mph E16.7 kmh E 13.8 mph22.2 kmh 29.89 in1012.2 mb - 0.00 in0.0 mm 0.00 in0.0 mm
01:20 PM 78.1°F25.6°C 51.8°F11.0°C 40% 11.5 mph ENE18.5 kmh ENE 16.1 mph25.9 kmh 29.88 in1011.9 mb - 0.00 in0.0 mm 0.00 in0.0 mm
01:30 PM 77.9°F25.5°C 51.7°F10.9°C 40% 9.2 mph E14.8 kmh E 12.7 mph20.4 kmh 29.88 in1011.9 mb - 0.00 in0.0 mm 0.00 in0.0 mm
01:40 PM 78.3°F25.7°C 51.9°F11.1°C 40% 6.9 mph E11.1 kmh E 12.7 mph20.4 kmh 29.87 in1011.5 mb - 0.00 in0.0 mm 0.00 in0.0 mm
01:50 PM 77.4°F25.2°C 51.1°F10.6°C 40% 10.4 mph NE16.7 kmh NE 12.7 mph20.4 kmh 29.87 in1011.5 mb - 0.00 in0.0 mm 0.00 in0.0 mm
02:00 PM 77.0°F25.0°C 52.1°F11.2°C 42% 5.8 mph E9.3 kmh E 11.5 mph18.5 kmh 29.87 in1011.5 mb - 0.00 in0.0 mm 0.00 in0.0 mm
02:10 PM 78.4°F25.8°C 52.7°F11.5°C 41% 8.1 mph E13.0 kmh E 11.5 mph18.5 kmh 29.86 in1011.2 mb - 0.00 in0.0 mm 0.00 in0.0 mm
02:20 PM 78.4°F25.8°C 51.3°F10.7°C 39% 8.1 mph ENE13.0 kmh ENE 11.5 mph18.5 kmh 29.86 in1011.2 mb - 0.00 in0.0 mm 0.00 in0.0 mm
02:30 PM 78.5°F25.8°C 52.1°F11.2°C 40% 9.2 mph ENE14.8 kmh ENE 11.5 mph18.5 kmh 29.85 in1010.8 mb - 0.00 in0.0 mm 0.00 in0.0 mm
02:40 PM 77.4°F25.2°C 52.5°F11.4°C 42% 5.8 mph E9.3 kmh E 8.1 mph13.0 kmh 29.85 in1010.8 mb - 0.00 in0.0 mm 0.00 in0.0 mm
02:50 PM 77.9°F25.5°C 53.6°F12.0°C 43% 8.1 mph NE13.0 kmh NE 11.5 mph18.5 kmh 29.85 in1010.8 mb - 0.00 in0.0 mm 0.00 in0.0 mm
03:00 PM 77.0°F25.0°C 54.0°F12.2°C 45% 5.8 mph ENE9.3 kmh ENE 10.4 mph16.7 kmh 29.84 in1010.5 mb - 0.00 in0.0 mm 0.00 in0.0 mm
03:10 PM 76.0°F24.4°C 52.5°F11.4°C 44% 8.1 mph ENE13.0 kmh ENE 9.2 mph14.8 kmh 29.84 in1010.5 mb - 0.00 in0.0 mm 0.00 in0.0 mm
03:20 PM 75.4°F24.1°C 52.6°F11.4°C 45% 6.9 mph ENE11.1 kmh ENE 9.2 mph14.8 kmh 29.83 in1010.2 mb - 0.00 in0.0 mm 0.00 in0.0 mm
03:30 PM 74.7°F23.7°C 53.7°F12.1°C 48% 4.6 mph NE7.4 kmh NE 8.1 mph13.0 kmh 29.83 in1010.2 mb - 0.00 in0.0 mm 0.00 in0.0 mm
03:40 PM 74.4°F23.6°C 54.0°F12.2°C 49% 3.5 mph NE5.6 kmh NE 4.6 mph7.4 kmh 29.83 in1010.2 mb - 0.00 in0.0 mm 0.00 in0.0 mm
03:50 PM 73.9°F23.3°C 53.0°F11.7°C 48% 4.6 mph ENE7.4 kmh ENE 4.6 mph7.4 kmh 29.83 in1010.2 mb - 0.00 in0.0 mm 0.00 in0.0 mm
04:00 PM 73.3°F22.9°C 53.5°F11.9°C 50% 4.6 mph NE7.4 kmh NE 5.8 mph9.3 kmh 29.82 in1009.8 mb - 0.00 in0.0 mm 0.00 in0.0 mm
04:10 PM 72.8°F22.7°C 53.7°F12.1°C 51% 3.5 mph NE5.6 kmh NE 8.1 mph13.0 kmh 29.82 in1009.8 mb - 0.00 in0.0 mm 0.00 in0.0 mm
04:20 PM 72.4°F22.4°C 53.2°F11.8°C 51% 2.3 mph NE3.7 kmh NE 3.5 mph5.6 kmh 29.82 in1009.8 mb - 0.00 in0.0 mm 0.00 in0.0 mm
04:30 PM 72.1°F22.3°C 53.5°F11.9°C 52% 3.5 mph NE5.6 kmh NE 3.5 mph5.6 kmh 29.82 in1009.8 mb - 0.00 in0.0 mm 0.00 in0.0 mm
04:40 PM 71.7°F22.1°C 54.2°F12.3°C 54% 2.3 mph ENE3.7 kmh ENE 3.5 mph5.6 kmh 29.82 in1009.8 mb - 0.00 in0.0 mm 0.00 in0.0 mm
04:50 PM 71.3°F21.8°C 54.3°F12.4°C 55% 4.6 mph ENE7.4 kmh ENE 6.9 mph11.1 kmh 29.82 in1009.8 mb - 0.00 in0.0 mm 0.00 in0.0 mm
05:00 PM 71.1°F21.7°C 54.6°F12.6°C 56% 3.5 mph E5.6 kmh E 4.6 mph7.4 kmh 29.82 in1009.8 mb - 0.00 in0.0 mm 0.00 in0.0 mm
05:10 PM 71.4°F21.9°C 55.3°F12.9°C 57% 3.5 mph ENE5.6 kmh ENE 6.9 mph11.1 kmh 29.82 in1009.8 mb - 0.00 in0.0 mm 0.00 in0.0 mm
05:20 PM 71.4°F21.9°C 54.9°F12.7°C 56% 3.5 mph ENE5.6 kmh ENE 4.6 mph7.4 kmh 29.82 in1009.8 mb - 0.00 in0.0 mm 0.00 in0.0 mm
05:30 PM 70.8°F21.6°C 55.3°F12.9°C 58% 5.8 mph E9.3 kmh E 9.2 mph14.8 kmh 29.82 in1009.8 mb - 0.00 in0.0 mm 0.00 in0.0 mm
05:40 PM 69.8°F21.0°C 54.8°F12.7°C 59% 6.9 mph E11.1 kmh E 9.2 mph14.8 kmh 29.82 in1009.8 mb - 0.00 in0.0 mm 0.00 in0.0 mm
05:50 PM 69.5°F20.8°C 55.5°F13.1°C 61% 3.5 mph E5.6 kmh E 5.8 mph9.3 kmh 29.82 in1009.8 mb - 0.00 in0.0 mm 0.00 in0.0 mm
06:00 PM 68.7°F20.4°C 55.2°F12.9°C 62% 4.6 mph ENE7.4 kmh ENE 9.2 mph14.8 kmh 29.82 in1009.8 mb - 0.00 in0.0 mm 0.00 in0.0 mm
06:10 PM 67.9°F19.9°C 55.7°F13.2°C 65% 3.5 mph E5.6 kmh E 5.8 mph9.3 kmh 29.82 in1009.8 mb - 0.00 in0.0 mm 0.00 in0.0 mm
06:20 PM 66.8°F19.3°C 55.1°F12.8°C 66% 4.6 mph ENE7.4 kmh ENE 4.6 mph7.4 kmh 29.82 in1009.8 mb - 0.00 in0.0 mm 0.00 in0.0 mm
06:30 PM 66.2°F19.0°C 55.0°F12.8°C 67% 4.6 mph ENE7.4 kmh ENE 9.2 mph14.8 kmh 29.82 in1009.8 mb - 0.00 in0.0 mm 0.00 in0.0 mm
06:40 PM 65.5°F18.6°C 54.7°F12.6°C 68% 2.3 mph ENE3.7 kmh ENE 3.5 mph5.6 kmh 29.81 in1009.5 mb - 0.00 in0.0 mm 0.00 in0.0 mm
06:50 PM 63.0°F17.2°C 54.5°F12.5°C 74% 2.3 mph ENE3.7 kmh ENE 3.5 mph5.6 kmh 29.81 in1009.5 mb - 0.00 in0.0 mm 0.00 in0.0 mm
07:00 PM 61.8°F16.6°C 54.2°F12.3°C 76% Calm Calm -- 29.82 in1009.8 mb - 0.00 in0.0 mm 0.00 in0.0 mm
07:10 PM 61.4°F16.3°C 54.1°F12.3°C 77% 1.2 mph ENE1.9 kmh ENE 2.3 mph3.7 kmh 29.82 in1009.8 mb - 0.00 in0.0 mm 0.00 in0.0 mm
07:20 PM 60.4°F15.8°C 53.5°F11.9°C 78% Calm Calm -- 29.82 in1009.8 mb - 0.00 in0.0 mm 0.00 in0.0 mm
07:30 PM 59.6°F15.3°C 53.4°F11.9°C 80% Calm Calm 1.2 mph1.9 kmh 29.82 in1009.8 mb - 0.00 in0.0 mm 0.00 in0.0 mm
07:40 PM 58.9°F14.9°C 53.4°F11.9°C 82% Calm Calm -- 29.82 in1009.8 mb - 0.00 in0.0 mm 0.00 in0.0 mm
07:50 PM 58.2°F14.6°C 53.4°F11.9°C 84% Calm Calm -- 29.82 in1009.8 mb - 0.00 in0.0 mm 0.00 in0.0 mm
08:00 PM 57.6°F14.2°C 53.1°F11.7°C 85% Calm Calm -- 29.82 in1009.8 mb - 0.00 in0.0 mm 0.00 in0.0 mm
08:10 PM 57.4°F14.1°C 53.3°F11.8°C 86% Calm Calm -- 29.82 in1009.8 mb - 0.00 in0.0 mm 0.00 in0.0 mm
08:20 PM 56.7°F13.7°C 53.2°F11.8°C 88% Calm Calm -- 29.82 in1009.8 mb - 0.00 in0.0 mm 0.00 in0.0 mm
08:30 PM 56.2°F13.4°C 52.7°F11.5°C 88% 1.2 mph ENE1.9 kmh ENE 2.3 mph3.7 kmh 29.81 in1009.5 mb - 0.00 in0.0 mm 0.00 in0.0 mm
08:40 PM 56.1°F13.4°C 52.9°F11.6°C 89% Calm Calm -- 29.81 in1009.5 mb - 0.00 in0.0 mm 0.00 in0.0 mm
08:50 PM 56.5°F13.6°C 53.0°F11.7°C 88% Calm Calm -- 29.81 in1009.5 mb - 0.00 in0.0 mm 0.00 in0.0 mm
09:00 PM 56.5°F13.6°C 53.3°F11.8°C 89% Calm Calm -- 29.81 in1009.5 mb - 0.00 in0.0 mm 0.00 in0.0 mm
09:10 PM 56.8°F13.8°C 53.6°F12.0°C 89% Calm Calm -- 29.81 in1009.5 mb - 0.00 in0.0 mm 0.00 in0.0 mm
09:20 PM 56.7°F13.7°C 53.5°F11.9°C 89% Calm Calm -- 29.80 in1009.1 mb - 0.00 in0.0 mm 0.00 in0.0 mm
09:30 PM 56.7°F13.7°C 53.5°F11.9°C 89% Calm Calm -- 29.80 in1009.1 mb - 0.00 in0.0 mm 0.00 in0.0 mm
09:40 PM 56.7°F13.7°C 53.8°F12.1°C 90% Calm Calm -- 29.80 in1009.1 mb - 0.00 in0.0 mm 0.00 in0.0 mm
09:50 PM 56.6°F13.7°C 53.7°F12.1°C 90% Calm Calm -- 29.80 in1009.1 mb - 0.00 in0.0 mm 0.00 in0.0 mm
10:00 PM 56.6°F13.7°C 54.0°F12.2°C 91% Calm Calm -- 29.80 in1009.1 mb - 0.00 in0.0 mm 0.00 in0.0 mm
10:10 PM 56.3°F13.5°C 53.4°F11.9°C 90% Calm Calm -- 29.80 in1009.1 mb - 0.00 in0.0 mm 0.00 in0.0 mm
10:20 PM 56.0°F13.3°C 53.4°F11.9°C 91% Calm Calm -- 29.80 in1009.1 mb - 0.00 in0.0 mm 0.00 in0.0 mm
10:30 PM 55.8°F13.2°C 53.5°F11.9°C 92% 2.3 mph NE3.7 kmh NE 3.5 mph5.6 kmh 29.80 in1009.1 mb - 0.00 in0.0 mm 0.00 in0.0 mm
10:40 PM 56.3°F13.5°C 54.0°F12.2°C 92% 1.2 mph ENE1.9 kmh ENE 2.3 mph3.7 kmh 29.80 in1009.1 mb - 0.00 in0.0 mm 0.00 in0.0 mm
10:50 PM 56.7°F13.7°C 54.4°F12.4°C 92% 2.3 mph E3.7 kmh E 8.1 mph13.0 kmh 29.80 in1009.1 mb - 0.00 in0.0 mm 0.00 in0.0 mm
11:00 PM 59.5°F15.3°C 56.9°F13.8°C 91% 1.2 mph ENE1.9 kmh ENE 3.5 mph5.6 kmh 29.79 in1008.8 mb - 0.00 in0.0 mm 0.00 in0.0 mm
11:10 PM 59.0°F15.0°C 56.0°F13.3°C 90% 1.2 mph E1.9 kmh E 3.5 mph5.6 kmh 29.79 in1008.8 mb - 0.00 in0.0 mm 0.00 in0.0 mm
11:20 PM 58.6°F14.8°C 56.0°F13.3°C 91% 2.3 mph ENE3.7 kmh ENE 3.5 mph5.6 kmh 29.79 in1008.8 mb - 0.00 in0.0 mm 0.00 in0.0 mm
11:30 PM 60.1°F15.6°C 57.2°F14.0°C 90% 2.3 mph ENE3.7 kmh ENE 3.5 mph5.6 kmh 29.79 in1008.8 mb - 0.00 in0.0 mm 0.00 in0.0 mm
11:40 PM 59.7°F15.4°C 56.5°F13.6°C 89% Calm Calm -- 29.78 in1008.5 mb - 0.00 in0.0 mm 0.00 in0.0 mm
11:50 PM 58.9°F14.9°C 56.3°F13.5°C 91% Calm Calm 2.3 mph3.7 kmh 29.78 in1008.5 mb - 0.00 in0.0 mm 0.00 in0.0 mm